Ag Nektarios Aiginas — SX7083 — position and weather

sailwx.info

Track history (hours):
 
Tides and Currents Weather Stations Pressure Air Temp Water Temp Dewpoint Dewpoint Depression Visibility Wind Speed Wind Dir Waves Ship Positions

Ag Nektarios Aiginas

Last reported at 2014-Oct-24 13:33 UTC. Time now 2014-Oct-24 21:30 UTC.
Position N 37°57' E 023°38'.

Length 75 m; draft 2.7 m.

Type: Passenger vessel. MMSI: 237021400.

Date/timePositionNaut miles runAvg speedWind from/ knotsBaromVisibWave heightAir tempDewpointWater temp
2014-Oct-24 13:33N 37°57' E 023°38'5 5.3
2014-Oct-24 12:33N 37°52' E 023°36'9 9.4
2014-Oct-24 11:33N 37°46' E 023°26'1 0.9
2014-Oct-24 10:33N 37°47' E 023°27'1110.8
2014-Oct-24 09:33N 37°55' E 023°36'2 2.1
2014-Oct-24 08:33N 37°56' E 023°38'1311.0
2014-Oct-24 07:21N 37°47' E 023°26'0 0.2
2014-Oct-24 06:33N 37°47' E 023°26'1212.4
2014-Oct-24 05:33N 37°56' E 023°37'1 1.5
2014-Oct-24 04:33N 37°57' E 023°38'3 0.3
2014-Oct-23 16:33N 37°54' E 023°36'1212.0
2014-Oct-23 15:33N 37°46' E 023°25'2 1.5
2014-Oct-23 14:33N 37°47' E 023°26'1111.4
2014-Oct-23 13:33N 37°55' E 023°36'2 2.4
2014-Oct-23 12:33N 37°57' E 023°38'0 0.0
2014-Oct-23 11:33N 37°57' E 023°38'0 0.0
2014-Oct-23 10:33N 37°57' E 023°38'0 0.0
2014-Oct-23 09:33N 37°57' E 023°38'10 9.7
2014-Oct-23 08:33N 37°47' E 023°36'9 8.9
2014-Oct-23 07:33N 37°45' E 023°25'7 6.7
2014-Oct-23 06:33N 37°48' E 023°33'9 8.9
2014-Oct-23 05:33N 37°56' E 023°37'1 1.4
2014-Oct-23 04:33N 37°57' E 023°38'0 0.0
2014-Oct-22 17:03N 37°57' E 023°38'3 5.8
2014-Oct-22 16:33N 37°54' E 023°36'1212.0
2014-Oct-22 15:33N 37°46' E 023°25'1 0.5
2014-Oct-22 14:33N 37°46' E 023°25'1212.4
2014-Oct-22 13:33N 37°55' E 023°35'2 1.6
2014-Oct-22 12:33N 37°56' E 023°37'1212.5
2014-Oct-22 11:33N 37°47' E 023°26'2 1.8
2014-Oct-22 10:33N 37°46' E 023°25'1312.8
2014-Oct-22 09:33N 37°55' E 023°36'3 2.8
2014-Oct-22 08:33N 37°57' E 023°38'1111.3
2014-Oct-22 07:33N 37°48' E 023°29'3 2.7
2014-Oct-22 06:33N 37°47' E 023°26'1312.8
2014-Oct-22 05:33N 37°56' E 023°37'1 1.3
2014-Oct-22 04:33N 37°57' E 023°38'2 0.1
2014-Oct-21 16:34N 37°56' E 023°37'1312.8
2014-Oct-21 15:34N 37°47' E 023°26'1 1.1
2014-Oct-21 14:34N 37°46' E 023°25'1312.6
2014-Oct-21 13:34N 37°55' E 023°36'1 1.4
2014-Oct-21 12:34N 37°56' E 023°37'1312.8
2014-Oct-21 11:33N 37°47' E 023°26'1 1.5
2014-Oct-21 10:34N 37°46' E 023°25'1312.8
2014-Oct-21 09:34N 37°55' E 023°36'3 2.7
2014-Oct-21 08:34N 37°57' E 023°38'1212.4
2014-Oct-21 07:34N 37°47' E 023°28'2 1.7
2014-Oct-21 06:33N 37°47' E 023°26'1312.6
2014-Oct-21 05:33N 37°56' E 023°37'2 1.7
2014-Oct-21 04:33N 37°57' E 023°39'2 0.1
2014-Oct-20 16:34N 37°56' E 023°37'1312.8
2014-Oct-20 15:33N 37°46' E 023°26'1 1.3
2014-Oct-20 14:34N 37°45' E 023°25'1312.8
2014-Oct-20 13:34N 37°55' E 023°36'1 0.8
2014-Oct-20 12:34N 37°55' E 023°36'1312.6
2014-Oct-20 11:33N 37°46' E 023°25'0 0.2
2014-Oct-20 10:33N 37°46' E 023°25'1312.9
2014-Oct-20 09:34N 37°56' E 023°37'1 1.4
2014-Oct-20 08:33N 37°56' E 023°38'1212.2
2014-Oct-20 07:34N 37°47' E 023°27'2 1.5
2014-Oct-20 06:33N 37°47' E 023°26'1312.8
2014-Oct-20 05:34N 37°56' E 023°37'1 0.1
2014-Oct-19 17:33N 37°57' E 023°38'6 5.8
2014-Oct-19 16:33N 37°52' E 023°34'1010.0
2014-Oct-19 15:33N 37°45' E 023°25'2 2.1
2014-Oct-19 14:33N 37°47' E 023°26'1312.9
2014-Oct-19 13:33N 37°56' E 023°37'4 4.0
2014-Oct-19 12:33N 37°53' E 023°34'1110.5
2014-Oct-19 11:33N 37°45' E 023°25'1 1.1
2014-Oct-19 10:33N 37°46' E 023°24'1313.0
2014-Oct-19 09:33N 37°55' E 023°36'2 2.5
2014-Oct-19 08:33N 37°57' E 023°38'1212.1
2014-Oct-19 07:33N 37°48' E 023°28'2 2.4
2014-Oct-19 06:33N 37°47' E 023°25'1312.9
2014-Oct-19 05:33N 37°56' E 023°37'2 1.7
2014-Oct-19 04:33N 37°57' E 023°38'2 0.1
2014-Oct-18 16:33N 37°56' E 023°37'1312.6
2014-Oct-18 15:33N 37°47' E 023°26'0 0.3
2014-Oct-18 14:33N 37°47' E 023°25'1312.6
2014-Oct-18 13:33N 37°56' E 023°37'1 0.7
2014-Oct-18 12:33N 37°56' E 023°37'1313.0
2014-Oct-18 11:33N 37°47' E 023°26'0 0.4
2014-Oct-18 10:33N 37°47' E 023°25'1212.1
2014-Oct-18 09:33N 37°55' E 023°36'1 1.1
2014-Oct-18 08:33N 37°56' E 023°37'1313.0
2014-Oct-18 07:33N 37°47' E 023°25'1 1.2
2014-Oct-18 06:33N 37°47' E 023°27'1212.0
2014-Oct-18 05:33N 37°56' E 023°37'1 1.2
2014-Oct-18 04:33N 37°57' E 023°38'2 0.1
2014-Oct-17 16:33N 37°56' E 023°37'1312.8
2014-Oct-17 15:33N 37°47' E 023°25'0 0.5
2014-Oct-17 14:33N 37°47' E 023°26'1212.1
2014-Oct-17 13:33N 37°55' E 023°36'0 0.3
2014-Oct-17 12:33N 37°56' E 023°36'1312.9
2014-Oct-17 11:33N 37°46' E 023°25'0 0.3
2014-Oct-17 10:33N 37°47' E 023°25'1212.3
2014-Oct-17 09:33N 37°55' E 023°36'1 1.2
2014-Oct-17 08:33N 37°56' E 023°37'1111.4
2014-Oct-17 07:33N 37°48' E 023°28'1 1.3
2014-Oct-17 06:33N 37°47' E 023°26'1212.2
2014-Oct-17 05:34N 37°56' E 023°37'2 1.5
2014-Oct-17 04:34N 37°57' E 023°38'1 0.1
2014-Oct-16 16:33N 37°56' E 023°37'1312.8
2014-Oct-16 15:34N 37°47' E 023°26'1 1.3
2014-Oct-16 14:33N 37°46' E 023°25'1312.6
2014-Oct-16 13:33N 37°55' E 023°36'2 1.5
2014-Oct-16 12:34N 37°56' E 023°37'1312.6
2014-Oct-16 11:33N 37°47' E 023°26'1 1.3
2014-Oct-16 10:33N 37°46' E 023°25'1312.7
2014-Oct-16 09:34N 37°55' E 023°36'2 2.4
2014-Oct-16 08:34N 37°57' E 023°38'1212.3
2014-Oct-16 07:33N 37°48' E 023°27'2 1.9
2014-Oct-16 06:34N 37°47' E 023°25'1312.8
2014-Oct-16 05:33N 37°56' E 023°37'2 1.7
2014-Oct-16 04:33N 37°57' E 023°38'1 0.1
2014-Oct-15 16:34N 37°56' E 023°37'1312.8
2014-Oct-15 15:33N 37°47' E 023°26'2 1.6
2014-Oct-15 14:33N 37°46' E 023°25'1312.7
2014-Oct-15 13:34N 37°55' E 023°36'2 1.8
2014-Oct-15 12:34N 37°56' E 023°37'1312.8
2014-Oct-15 11:34N 37°47' E 023°26'2 1.9
2014-Oct-15 10:33N 37°45' E 023°25'1312.7
2014-Oct-15 09:33N 37°55' E 023°36'3 3.0
2014-Oct-15 08:34N 37°57' E 023°38'1111.3
2014-Oct-15 07:33N 37°48' E 023°29'3 2.8
2014-Oct-15 06:33N 37°47' E 023°26'1312.8
2014-Oct-15 05:33N 37°56' E 023°37'1 1.3
2014-Oct-15 04:33N 37°57' E 023°38'1 0.1
2014-Oct-14 16:33N 37°56' E 023°37'1312.9
2014-Oct-14 15:33N 37°47' E 023°26'1 1.0
2014-Oct-14 14:33N 37°46' E 023°25'1312.6
2014-Oct-14 13:33N 37°55' E 023°36'  
Track history (hours):
 
Tides and Currents Weather Stations Pressure Air Temp Water Temp Dewpoint Dewpoint Depression Visibility Wind Speed Wind Dir Waves Ship Positions

Ag Nektarios Aiginas

Last reported at 2014-Oct-24 13:33 UTC. Time now 2014-Oct-24 21:30 UTC.
Position N 37°57' E 023°38'.

Length 75 m; draft 2.7 m.

Type: Passenger vessel. MMSI: 237021400.

Date/timePositionNaut miles runAvg speedWind from/ knotsBaromVisibWave heightAir tempDewpointWater temp
2014-Oct-24 13:33N 37°57' E 023°38'5 5.3
2014-Oct-24 12:33N 37°52' E 023°36'9 9.4
2014-Oct-24 11:33N 37°46' E 023°26'1 0.9
2014-Oct-24 10:33N 37°47' E 023°27'1110.8
2014-Oct-24 09:33N 37°55' E 023°36'2 2.1
2014-Oct-24 08:33N 37°56' E 023°38'1311.0
2014-Oct-24 07:21N 37°47' E 023°26'0 0.2
2014-Oct-24 06:33N 37°47' E 023°26'1212.4
2014-Oct-24 05:33N 37°56' E 023°37'1 1.5
2014-Oct-24 04:33N 37°57' E 023°38'3 0.3
2014-Oct-23 16:33N 37°54' E 023°36'1212.0
2014-Oct-23 15:33N 37°46' E 023°25'2 1.5
2014-Oct-23 14:33N 37°47' E 023°26'1111.4
2014-Oct-23 13:33N 37°55' E 023°36'2 2.4
2014-Oct-23 12:33N 37°57' E 023°38'0 0.0
2014-Oct-23 11:33N 37°57' E 023°38'0 0.0
2014-Oct-23 10:33N 37°57' E 023°38'0 0.0
2014-Oct-23 09:33N 37°57' E 023°38'10 9.7
2014-Oct-23 08:33N 37°47' E 023°36'9 8.9
2014-Oct-23 07:33N 37°45' E 023°25'7 6.7
2014-Oct-23 06:33N 37°48' E 023°33'9 8.9
2014-Oct-23 05:33N 37°56' E 023°37'1 1.4
2014-Oct-23 04:33N 37°57' E 023°38'0 0.0
2014-Oct-22 17:03N 37°57' E 023°38'3 5.8
2014-Oct-22 16:33N 37°54' E 023°36'1212.0
2014-Oct-22 15:33N 37°46' E 023°25'1 0.5
2014-Oct-22 14:33N 37°46' E 023°25'1212.4
2014-Oct-22 13:33N 37°55' E 023°35'2 1.6
2014-Oct-22 12:33N 37°56' E 023°37'1212.5
2014-Oct-22 11:33N 37°47' E 023°26'2 1.8
2014-Oct-22 10:33N 37°46' E 023°25'1312.8
2014-Oct-22 09:33N 37°55' E 023°36'3 2.8
2014-Oct-22 08:33N 37°57' E 023°38'1111.3
2014-Oct-22 07:33N 37°48' E 023°29'3 2.7
2014-Oct-22 06:33N 37°47' E 023°26'1312.8
2014-Oct-22 05:33N 37°56' E 023°37'1 1.3
2014-Oct-22 04:33N 37°57' E 023°38'2 0.1
2014-Oct-21 16:34N 37°56' E 023°37'1312.8
2014-Oct-21 15:34N 37°47' E 023°26'1 1.1
2014-Oct-21 14:34N 37°46' E 023°25'1312.6
2014-Oct-21 13:34N 37°55' E 023°36'1 1.4
2014-Oct-21 12:34N 37°56' E 023°37'1312.8
2014-Oct-21 11:33N 37°47' E 023°26'1 1.5
2014-Oct-21 10:34N 37°46' E 023°25'1312.8
2014-Oct-21 09:34N 37°55' E 023°36'3 2.7
2014-Oct-21 08:34N 37°57' E 023°38'1212.4
2014-Oct-21 07:34N 37°47' E 023°28'2 1.7
2014-Oct-21 06:33N 37°47' E 023°26'1312.6
2014-Oct-21 05:33N 37°56' E 023°37'2 1.7
2014-Oct-21 04:33N 37°57' E 023°39'2 0.1
2014-Oct-20 16:34N 37°56' E 023°37'1312.8
2014-Oct-20 15:33N 37°46' E 023°26'1 1.3
2014-Oct-20 14:34N 37°45' E 023°25'1312.8
2014-Oct-20 13:34N 37°55' E 023°36'1 0.8
2014-Oct-20 12:34N 37°55' E 023°36'1312.6
2014-Oct-20 11:33N 37°46' E 023°25'0 0.2
2014-Oct-20 10:33N 37°46' E 023°25'1312.9
2014-Oct-20 09:34N 37°56' E 023°37'1 1.4
2014-Oct-20 08:33N 37°56' E 023°38'1212.2
2014-Oct-20 07:34N 37°47' E 023°27'2 1.5
2014-Oct-20 06:33N 37°47' E 023°26'1312.8
2014-Oct-20 05:34N 37°56' E 023°37'1 0.1
2014-Oct-19 17:33N 37°57' E 023°38'6 5.8
2014-Oct-19 16:33N 37°52' E 023°34'1010.0
2014-Oct-19 15:33N 37°45' E 023°25'2 2.1
2014-Oct-19 14:33N 37°47' E 023°26'1312.9
2014-Oct-19 13:33N 37°56' E 023°37'4 4.0
2014-Oct-19 12:33N 37°53' E 023°34'1110.5
2014-Oct-19 11:33N 37°45' E 023°25'1 1.1
2014-Oct-19 10:33N 37°46' E 023°24'1313.0
2014-Oct-19 09:33N 37°55' E 023°36'2 2.5
2014-Oct-19 08:33N 37°57' E 023°38'1212.1
2014-Oct-19 07:33N 37°48' E 023°28'2 2.4
2014-Oct-19 06:33N 37°47' E 023°25'1312.9
2014-Oct-19 05:33N 37°56' E 023°37'2 1.7
2014-Oct-19 04:33N 37°57' E 023°38'2 0.1
2014-Oct-18 16:33N 37°56' E 023°37'1312.6
2014-Oct-18 15:33N 37°47' E 023°26'0 0.3
2014-Oct-18 14:33N 37°47' E 023°25'1312.6
2014-Oct-18 13:33N 37°56' E 023°37'1 0.7
2014-Oct-18 12:33N 37°56' E 023°37'1313.0
2014-Oct-18 11:33N 37°47' E 023°26'0 0.4
2014-Oct-18 10:33N 37°47' E 023°25'1212.1
2014-Oct-18 09:33N 37°55' E 023°36'1 1.1
2014-Oct-18 08:33N 37°56' E 023°37'1313.0
2014-Oct-18 07:33N 37°47' E 023°25'1 1.2
2014-Oct-18 06:33N 37°47' E 023°27'1212.0
2014-Oct-18 05:33N 37°56' E 023°37'1 1.2
2014-Oct-18 04:33N 37°57' E 023°38'2 0.1
2014-Oct-17 16:33N 37°56' E 023°37'1312.8
2014-Oct-17 15:33N 37°47' E 023°25'0 0.5
2014-Oct-17 14:33N 37°47' E 023°26'1212.1
2014-Oct-17 13:33N 37°55' E 023°36'0 0.3
2014-Oct-17 12:33N 37°56' E 023°36'1312.9
2014-Oct-17 11:33N 37°46' E 023°25'0 0.3
2014-Oct-17 10:33N 37°47' E 023°25'1212.3
2014-Oct-17 09:33N 37°55' E 023°36'1 1.2
2014-Oct-17 08:33N 37°56' E 023°37'1111.4
2014-Oct-17 07:33N 37°48' E 023°28'1 1.3
2014-Oct-17 06:33N 37°47' E 023°26'1212.2
2014-Oct-17 05:34N 37°56' E 023°37'2 1.5
2014-Oct-17 04:34N 37°57' E 023°38'1 0.1
2014-Oct-16 16:33N 37°56' E 023°37'1312.8
2014-Oct-16 15:34N 37°47' E 023°26'1 1.3
2014-Oct-16 14:33N 37°46' E 023°25'1312.6
2014-Oct-16 13:33N 37°55' E 023°36'2 1.5
2014-Oct-16 12:34N 37°56' E 023°37'1312.6
2014-Oct-16 11:33N 37°47' E 023°26'1 1.3
2014-Oct-16 10:33N 37°46' E 023°25'1312.7
2014-Oct-16 09:34N 37°55' E 023°36'2 2.4
2014-Oct-16 08:34N 37°57' E 023°38'1212.3
2014-Oct-16 07:33N 37°48' E 023°27'2 1.9
2014-Oct-16 06:34N 37°47' E 023°25'1312.8
2014-Oct-16 05:33N 37°56' E 023°37'2 1.7
2014-Oct-16 04:33N 37°57' E 023°38'1 0.1
2014-Oct-15 16:34N 37°56' E 023°37'1312.8
2014-Oct-15 15:33N 37°47' E 023°26'2 1.6
2014-Oct-15 14:33N 37°46' E 023°25'1312.7
2014-Oct-15 13:34N 37°55' E 023°36'2 1.8
2014-Oct-15 12:34N 37°56' E 023°37'1312.8
2014-Oct-15 11:34N 37°47' E 023°26'2 1.9
2014-Oct-15 10:33N 37°45' E 023°25'1312.7
2014-Oct-15 09:33N 37°55' E 023°36'3 3.0
2014-Oct-15 08:34N 37°57' E 023°38'1111.3
2014-Oct-15 07:33N 37°48' E 023°29'3 2.8
2014-Oct-15 06:33N 37°47' E 023°26'1312.8
2014-Oct-15 05:33N 37°56' E 023°37'1 1.3
2014-Oct-15 04:33N 37°57' E 023°38'1 0.1
2014-Oct-14 16:33N 37°56' E 023°37'1312.9
2014-Oct-14 15:33N 37°47' E 023°26'1 1.0
2014-Oct-14 14:33N 37°46' E 023°25'1312.6
2014-Oct-14 13:33N 37°55' E 023°36'  

Dump ship's entire track history